Engel's, Russia
Current Conditions -  °F | °C
As of 4:30 PM on Friday 31 Oct 2014 (Local Time) from UWSS Reporting Station
Overcast Overcast  
Wind Chill: 42°   Ceiling: 3300
Heat Index: 45°   Visibility: 6mi
Dew Point: 39°   Wind: 4mph
Humidity: 81%   Direction: NA
Pressure: 30.12"   Gusts: NA
Location:  51.3°N, 46.12°E
Report Text: UWSS 311330Z VRB02MPS 9999 BKN033 OVC100 07/04 Q1020 3029//55NOSIG RMK QFE751
Loading
Personal Weather Stations






























Interactive Weather Map
Tropical Storm Tracking
New forecast layout! Learn more

10-Day Weather Forecast

Advertisements
Track Severe Weather on mobile